Terminal Aerodrome Forecast
Issued by NWS

Home | Current Version | Previous Version | Text Only | Print | Product List | Glossary On
Versions: 1 2 3 4 5 6 7 8 9 10 11 12 13 14 15 16 17 18 19 20 21 22 23 24 25
541
FTUS41 KBUF 121140
TAFJHW
TAF
KJHW 121140Z 1212/1312 20008KT P6SM BKN035
     FM121700 22014G20KT P6SM BKN035
     FM122300 26012KT 1SM -SN OVC012
     FM130000 28012KT 1/4SM +SN OVC007
     FM130600 32014G22KT 2SM -SN BLSN OVC015
      AMD LTD TO CLD VIS AND WIND=

USA.gov is the U.S. government's official web portal to all federal, state and local government web resources and services.